To NAV CANADA Home Page Login to a new session Search on AWWS site Disclaimer Vers la page française équivalente Tips FAQ What's new on the site To the Forecasts and Observations / NOTAM section To "File a Flight Plan" website Publications and other links Update of the User's profile FIC Telephone Numbers My Weather Data Folder Route Weather Data Regional Weather Data Local Weather Data To the Forecasts and Observations / NOTAM section
Request Generated 09/19/2020 at 02:01:45 UTC . Weather information available at that time is displayed.

METAR/TAF

PETERBOROUGH/ON    (show WxCam)

METAR CYPQ 190100Z AUTO 00000KT 9SM CLR 03/02 A3030 RMK SLP267=
METAR CYPQ 190000Z AUTO 33002KT 9SM CLR 06/02 A3028 RMK SLP260=
METAR CYPQ 182300Z AUTO 34006KT 9SM CLR 10/M00 A3026 RMK SLP254=

*** REMARK        : Forecast period has ended; this was the last TAF issued
*** REMARQUE : La période de prévision est échue; ceci était le dernier TAF qui a été émis
TAF CYPQ 181938Z 1820/1902 36012KT P6SM SCT060 TEMPO 1820/1823 BKN060
FM190000 34010KT P6SM FEW060
BECMG 1900/1902 34006KT
RMK FCST BASED ON AUTO OBS. NXT FCST WILL BE ISSUED AT 190945Z=
Your time UTC time
Weather data provided by Environment Canada and NAV CANADA